Time;durP1;ratioP1;P1;durP2;ratioP2;P2;SDS_P1;SDS_P2;PMS_P1;PMS_P2;Temp;Humidity;BMP_temperature;BMP_pressure;BME280_temperature;BME280_humidity;BME280_pressure;Samples;Min_cycle;Max_cycle;Signal;HPM_P1;HPM_P2
2022/10/05 00:00:27;;;;;;;10.50;7.17;;;;;;;;;;5072882;28;20063;-73
2022/10/05 00:02:54;;;;;;;12.03;6.90;;;;;;;;;;5073376;28;20056;-73
2022/10/05 00:05:26;;;;;;;11.77;7.03;;;;;;;;;;5054671;28;20165;-73
2022/10/05 00:07:54;;;;;;;10.60;7.63;;;;;;;;;;5055191;28;20055;-73
2022/10/05 00:10:20;;;;;;;11.47;7.20;;;;;;;;;;5072682;28;20504;-73
2022/10/05 00:12:47;;;;;;;10.97;7.80;;;;;;;;;;5072931;28;20518;-73
2022/10/05 00:15:14;;;;;;;9.60;7.80;;;;;;;;;;5072645;28;20128;-73
2022/10/05 00:17:41;;;;;;;13.00;7.67;;;;;;;;;;5072880;28;20044;-73
2022/10/05 00:20:16;;;;;;;10.27;7.23;;;;;;;;;;5055103;28;20113;-73
2022/10/05 00:22:43;;;;;;;13.47;7.73;;;;;;;;;;5055301;28;20483;-73
2022/10/05 00:25:17;;;;;;;12.97;8.03;;;;;;;;;;5072732;28;20044;-70
2022/10/05 00:27:45;;;;;;;11.32;8.40;;;;;;;;;;5072741;28;20052;-70
2022/10/05 00:30:19;;;;;;;12.73;7.43;;;;;;;;;;5072836;28;20093;-70
2022/10/05 00:32:46;;;;;;;13.30;8.00;;;;;;;;;;5072844;28;20047;-70
2022/10/05 00:35:13;;;;;;;10.03;8.03;;;;;;;;;;5072776;28;20055;-70
2022/10/05 00:37:39;;;;;;;11.00;7.10;;;;;;;;;;5072775;28;20049;-70
2022/10/05 00:40:10;;;;;;;11.50;7.40;;;;;;;;;;5072682;28;20052;-70
2022/10/05 00:42:55;;;;;;;12.37;7.73;;;;;;;;;;5054847;28;20052;-70
2022/10/05 00:45:23;;;;;;;9.90;6.78;;;;;;;;;;5072370;28;20048;-70
2022/10/05 00:48:16;;;;;;;12.70;7.47;;;;;;;;;;5072910;28;20044;-70
2022/10/05 00:50:54;;;;;;;10.00;7.30;;;;;;;;;;5067884;28;20063;-70
2022/10/05 00:53:38;;;;;;;9.23;6.83;;;;;;;;;;5072459;28;20444;-70
2022/10/05 00:56:19;;;;;;;12.23;7.88;;;;;;;;;;5055055;28;20299;-70
2022/10/05 00:59:12;;;;;;;9.27;6.83;;;;;;;;;;5072489;28;20088;-70
2022/10/05 01:01:44;;;;;;;10.90;7.03;;;;;;;;;;5072301;28;20161;-70
2022/10/05 01:04:16;;;;;;;9.13;6.20;;;;;;;;;;5072698;28;20097;-70
2022/10/05 01:06:45;;;;;;;9.43;6.67;;;;;;;;;;5072398;28;20303;-70
2022/10/05 01:09:21;;;;;;;9.60;6.63;;;;;;;;;;5072551;28;20084;-70
2022/10/05 01:12:05;;;;;;;9.87;6.57;;;;;;;;;;5072334;28;20493;-70
2022/10/05 01:14:50;;;;;;;9.80;5.50;;;;;;;;;;5072100;28;20045;-70
2022/10/05 01:17:19;;;;;;;11.75;6.75;;;;;;;;;;5074433;28;20117;-70
2022/10/05 01:19:54;;;;;;;8.17;5.47;;;;;;;;;;5076412;28;20122;-70
2022/10/05 01:22:20;;;;;;;;;;;;;;;;;;5075707;28;20139;-70
2022/10/05 01:24:55;;;;;;;9.03;5.87;;;;;;;;;;5075962;28;19966;-70
2022/10/05 01:27:30;;;;;;;9.38;5.38;;;;;;;;;;5075499;28;20053;-70
2022/10/05 01:30:02;;;;;;;8.67;6.30;;;;;;;;;;5075889;28;20052;-70
2022/10/05 01:32:36;;;;;;;12.83;6.73;;;;;;;;;;5075705;28;20040;-70
2022/10/05 01:35:14;;;;;;;8.93;6.00;;;;;;;;;;5058298;28;20337;-70
2022/10/05 01:37:49;;;;;;;9.17;5.80;;;;;;;;;;5075557;28;20044;-70
2022/10/05 01:40:20;;;;;;;9.65;6.70;;;;;;;;;;5075983;28;20067;-70
2022/10/05 01:42:53;;;;;;;11.87;6.50;;;;;;;;;;5076011;28;20044;-70
2022/10/05 01:45:33;;;;;;;10.33;6.30;;;;;;;;;;5075648;28;20048;-70
2022/10/05 01:48:07;;;;;;;10.47;6.57;;;;;;;;;;5075765;28;20048;-69
2022/10/05 01:51:06;;;;;;;11.80;7.70;;;15.30;99.90;;;;;;5075391;28;20472;-70
2022/10/05 01:53:41;;;;;;;9.43;7.23;;;;;;;;;;5060708;28;20102;-70
2022/10/05 01:56:26;;;;;;;10.23;7.10;;;;;;;;;;5075555;28;20056;-70
2022/10/05 01:59:03;;;;;;;13.15;7.70;;;;;;;;;;5057859;28;20401;-70
2022/10/05 02:01:37;;;;;;;12.70;8.50;;;;;;;;;;5075170;28;20462;-70
2022/10/05 02:04:27;;;;;;;10.52;8.02;;;;;;;;;;5057849;28;20087;-70
2022/10/05 02:06:53;;;;;;;9.50;7.07;;;;;;;;;;5062423;28;20185;-70
2022/10/05 02:09:31;;;;;;;10.50;7.80;;;;;;;;;;5075238;28;20289;-70
2022/10/05 02:12:01;;;;;;;10.43;7.80;;;;;;;;;;5074873;28;20500;-70
2022/10/05 02:14:31;;;;;;;10.23;8.00;;;;;;;;;;5074806;28;20044;-70
2022/10/05 02:17:00;;;;;;;12.80;8.80;;;;;;;;;;5075263;28;20090;-70
2022/10/05 02:19:26;;;;;;;10.43;7.80;;;;;;;;;;5074747;28;20048;-70
2022/10/05 02:21:58;;;;;;;13.03;7.77;;;;;;;;;;5075081;28;20392;-70
2022/10/05 02:24:30;;;;;;;9.70;7.93;;;;;;;;;;5074447;28;20040;-70
2022/10/05 02:26:56;;;;;;;13.20;8.00;;;;;;;;;;5074418;28;20049;-70
2022/10/05 02:29:24;;;;;;;10.33;7.63;;;;;;;;;;5074981;28;20134;-70
2022/10/05 02:31:52;;;;;;;12.00;8.40;;;;;;;;;;5074701;28;20050;-70
2022/10/05 02:34:28;;;;;;;9.63;7.17;;;;;;;;;;5074902;28;20048;-70
2022/10/05 02:37:07;;;;;;;10.67;7.60;;;;;;;;;;5074498;28;20465;-70
2022/10/05 02:39:42;;;;;;;10.03;7.50;;;;;;;;;;5074412;28;20048;-70
2022/10/05 02:42:11;;;;;;;11.43;7.50;;;;;;;;;;5074635;28;20465;-70
2022/10/05 02:44:47;;;;;;;13.40;7.63;;;;;;;;;;5074307;28;20080;-70
2022/10/05 02:47:18;;;;;;;8.97;6.70;;;;;;;;;;5074605;28;20094;-70
2022/10/05 02:49:57;;;;;;;11.43;6.97;;;;;;;;;;5074168;28;20045;-70
2022/10/05 02:52:32;;;;;;;14.00;7.27;;;;;;;;;;5074465;28;20090;-70
2022/10/05 02:54:59;;;;;;;;;;;;;;;;;;5074971;28;20131;-71
2022/10/05 02:57:33;;;;;;;12.80;7.83;;;;;;;;;;5074384;28;19921;-70
2022/10/05 03:00:03;;;;;;;9.87;6.70;;;;;;;;;;5074538;28;20271;-70
2022/10/05 03:02:30;;;;;;;9.40;6.60;;;;;;;;;;5073980;28;20071;-71
2022/10/05 03:04:59;;;;;;;8.97;6.70;;;;;;;;;;5074121;28;20056;-70
2022/10/05 03:07:32;;;;;;;10.20;6.67;;;;;;;;;;5074201;28;20392;-70
2022/10/05 03:10:05;;;;;;;10.83;5.97;;;;;;;;;;5073965;28;20488;-70
2022/10/05 03:12:37;;;;;;;9.03;6.00;;;;;;;;;;5055955;28;20047;-70
2022/10/05 03:15:07;;;;;;;10.37;6.17;;;;;;;;;;5073843;28;20778;-70
2022/10/05 03:17:49;;;;;;;8.57;6.07;;;;;;;;;;5073528;28;20048;-70
2022/10/05 03:20:26;;;;;;;9.13;5.90;;;;;;;;;;5073846;28;20412;-70
2022/10/05 03:22:56;;;;;;;9.27;6.30;;;;;;;;;;5073564;28;20105;-70
2022/10/05 03:25:32;;;;;;;10.63;6.37;;;;;;;;;;5056147;28;20089;-70
2022/10/05 03:28:07;;;;;;;8.80;5.87;;;;;;;;;;5056080;28;20051;-70
2022/10/05 03:30:56;;;;;;;7.83;5.67;;;;;;;;;;5073456;28;20048;-70
2022/10/05 03:33:30;;;;;;;7.87;5.20;;;;;;;;;;5073651;28;20045;-70
2022/10/05 03:36:06;;;;;;;7.87;5.87;;;;;;;;;;5073438;28;20048;-70
2022/10/05 03:38:43;;;;;;;8.87;5.30;;;;;;;;;;5055711;28;20337;-70
2022/10/05 03:41:20;;;;;;;8.40;5.90;;;;;;;;;;5073459;28;20044;-70
2022/10/05 03:44:01;;;;;;;9.17;5.33;;;;;;;;;;5073201;28;20071;-70
2022/10/05 03:46:27;;;;;;;9.33;5.47;;;;;;;;;;5073497;28;20127;-70
2022/10/05 03:49:00;;;;;;;8.50;5.07;;;;;;;;;;5055182;28;20137;-70
2022/10/05 03:51:29;;;;;;;7.70;5.00;;;;;;;;;;5073371;28;20287;-70
2022/10/05 03:53:59;;;;;;;8.77;5.13;;;;;;;;;;5073007;28;20053;-70
2022/10/05 03:56:36;;;;;;;10.30;5.53;;;;;;;;;;5073028;28;20366;-70
2022/10/05 03:59:07;;;;;;;11.13;5.20;;;;;;;;;;5073221;28;20051;-70
2022/10/05 04:01:44;;;;;;;7.63;5.03;;;;;;;;;;5073336;28;20059;-70
2022/10/05 04:04:19;;;;;;;9.77;5.70;;;;;;;;;;5073197;28;20056;-70
2022/10/05 04:06:47;;;;;;;10.80;5.43;;;;;;;;;;5072894;28;20041;-70
2022/10/05 04:09:20;;;;;;;9.13;5.60;;;;;;;;;;5073051;28;20127;-70
2022/10/05 04:11:51;;;;;;;8.97;5.57;;;;;;;;;;5072747;28;20049;-70
2022/10/05 04:14:23;;;;;;;10.13;5.93;;;;;;;;;;5073068;28;20048;-70
2022/10/05 04:16:56;;;;;;;9.00;5.27;;;;;;;;;;5072829;28;20128;-70
2022/10/05 04:19:25;;;;;;;8.83;5.40;;;;;;;;;;5073103;28;20354;-70
2022/10/05 04:21:54;;;;;;;8.70;5.70;;;;;;;;;;5072207;28;20221;-70
2022/10/05 04:24:26;;;;;;;9.90;4.97;;;;;;;;;;5073024;28;20044;-70
2022/10/05 04:27:19;;;;;;;10.93;5.77;;;;;;;;;;5072595;28;20044;-70
2022/10/05 04:30:07;;;;;;;7.10;5.23;;;;;;;;;;5050690;28;20121;-70
2022/10/05 04:32:44;;;;;;;8.27;5.00;;;;;;;;;;5073021;28;20278;-70
2022/10/05 04:35:10;;;;;;;10.63;5.07;;;;;;;;;;5072729;28;20048;-70
2022/10/05 04:37:39;;;;;;;9.37;5.30;;;;;;;;;;5072783;28;20080;-70
2022/10/05 04:40:14;;;;;;;9.97;5.30;;;;;;;;;;5055487;28;20044;-70
2022/10/05 04:42:47;;;;;;;9.90;4.97;;;;;;;;;;5054811;28;20052;-70
2022/10/05 04:45:18;;;;;;;8.87;5.97;;;;;;;;;;5072966;28;20067;-70
2022/10/05 04:47:54;;;;;;;8.57;5.13;;;;;;;;;;5072365;28;20082;-70
2022/10/05 04:50:34;;;;;;;7.73;5.93;;;;;;;;;;5055474;28;20045;-70
2022/10/05 04:53:13;;;;;;;8.80;5.73;;;;;;;;;;5076334;28;20047;-70
2022/10/05 04:55:54;;;;;;;8.47;6.00;;;;;;;;;;5076648;28;20045;-70
2022/10/05 04:58:40;;;;;;;11.93;6.20;;;;;;;;;;5076528;28;20087;-70
2022/10/05 05:01:21;;;;;;;8.97;6.27;;;;;;;;;;5076240;28;20045;-70
2022/10/05 05:03:56;;;;;;;10.07;6.93;;;;;;;;;;5075840;28;20049;-70
2022/10/05 05:06:33;;;;;;;10.73;7.18;;;;;;;;;;5076471;28;20090;-70
2022/10/05 05:09:18;;;;;;;12.10;6.23;;;;;;;;;;5076103;28;20049;-70
2022/10/05 05:12:03;;;;;;;11.80;7.00;;;;;;;;;;5076448;28;20306;-72
2022/10/05 05:14:47;;;;;;;13.38;7.88;;;;;;;;;;5076293;28;20401;-72
2022/10/05 05:17:27;;;;;;;12.45;7.22;;;;;;;;;;5058852;28;20098;-72
2022/10/05 05:20:12;;;;;;;9.93;7.10;;;;;;;;;;5075992;28;20052;-72
2022/10/05 05:22:57;;;;;;;9.60;7.30;;;;;;;;;;5038511;28;20497;-72
2022/10/05 05:25:29;;;;;;;9.68;7.07;;;;;;;;;;5056092;28;20081;-72
2022/10/05 05:28:05;;;;;;;16.23;8.20;;;;;;;;;;5055768;28;20439;-72
2022/10/05 05:30:47;;;;;;;11.17;7.20;;;;;;;;;;5038439;28;20049;-72
2022/10/05 05:33:14;;;;;;;10.40;6.83;;;;;;;;;;5056225;28;20049;-72
2022/10/05 05:35:52;;;;;;;10.77;7.00;;;;;;;;;;5055907;28;20286;-72
2022/10/05 05:38:18;;;;;;;11.10;6.97;;;;;;;;;;5038458;28;20048;-72
2022/10/05 05:40:50;;;;;;;9.47;6.40;;;;;;;;;;5055874;28;20051;-72
2022/10/05 05:43:23;;;;;;;11.70;7.57;;;;;;;;;;5038396;28;20291;-72
2022/10/05 05:45:56;;;;;;;15.70;7.67;;;;;;;;;;5055372;28;20383;-72
2022/10/05 05:48:40;;;;;;;10.90;7.50;;;;;;;;;;5055952;28;20068;-72
2022/10/05 05:51:09;;;;;;;10.53;6.40;;;;;;;;;;5055347;28;20290;-72
2022/10/05 05:53:35;;;;;;;10.80;7.03;;;;;;;;;;5055573;28;20132;-71
2022/10/05 05:56:07;;;;;;;9.73;6.87;;;;;;;;;;5055243;28;20326;-72
2022/10/05 05:58:38;;;;;;;12.57;6.37;;;;;;;;;;5055459;28;20620;-72
2022/10/05 06:01:10;;;;;;;8.77;6.20;;;;;;;;;;5055118;28;20283;-72
2022/10/05 06:03:39;;;;;;;11.07;7.27;;;;;;;;;;5054943;28;20095;-72
2022/10/05 06:06:14;;;;;;;9.87;6.87;;;;;;;;;;5054971;28;20041;-72
2022/10/05 06:08:42;;;;;;;11.38;6.53;;;;;;;;;;5055270;28;20291;-71
2022/10/05 06:11:11;;;;;;;9.93;6.63;;;;;;;;;;5054883;28;20060;-72
2022/10/05 06:13:39;;;;;;;10.40;6.30;;;;;;;;;;5055097;28;20456;-71
2022/10/05 06:16:05;;;;;;;10.60;6.57;;;;;;;;;;5037161;28;20497;-71
2022/10/05 06:18:32;;;;;;;9.20;6.17;;;;;;;;;;5055216;28;20051;-71
2022/10/05 06:21:01;;;;;;;9.43;6.17;;;;;;;;;;5061247;28;20056;-71
2022/10/05 06:23:38;;;;;;;8.93;6.33;;;;;;;;;;5075014;28;20123;-71
2022/10/05 06:26:11;;;;;;;10.50;6.37;;;;;;;;;;5074685;28;20469;-71
2022/10/05 06:28:38;;;;;;;9.20;5.50;;;;;;;;;;5074942;28;20044;-72
2022/10/05 06:31:22;;;;;;;10.70;6.40;;;;;;;;;;5074564;28;20331;-72
2022/10/05 06:33:49;;;;;;;9.07;5.63;;;;;;;;;;5057177;28;20048;-72
2022/10/05 06:36:34;;;;;;;9.43;5.70;;;;;;;;;;5074780;28;20041;-72
2022/10/05 06:39:19;;;;;;;9.95;5.65;;;;;;;;;;5074333;28;20275;-72
2022/10/05 06:42:03;;;;;;;11.55;6.50;;;;;;;;;;5074725;28;20048;-72
2022/10/05 06:44:48;;;;;;;11.73;5.88;;;;;;;;;;5074880;28;20079;-72
2022/10/05 06:47:14;;;;;;;10.38;5.35;;;;;;;;;;5074183;28;20538;-72
2022/10/05 06:49:49;;;;;;;9.67;5.77;;;;;;;;;;5074629;28;20048;-71
2022/10/05 06:52:15;;;;;;;;;;;;;;;;;;5074261;28;20814;-72
2022/10/05 06:55:20;;;;;;;11.03;6.40;;;;;;;;;;5074407;28;19971;-71
2022/10/05 06:57:49;;;;;;;9.57;5.43;;;;;;;;;;4973269;28;20133;-71
2022/10/05 07:00:20;;;;;;;8.13;5.67;;;;;;;;;;4972899;28;20446;-71
2022/10/05 07:02:48;;;;;;;8.47;5.37;;;;;;;;;;5026312;28;20291;-72
2022/10/05 07:05:24;;;;;;;8.00;5.30;;;;;;;;;;5073600;28;20442;-72
2022/10/05 07:07:53;;;;;;;8.30;5.60;;;;;;;;;;5074023;28;20048;-72
2022/10/05 07:10:38;;;;;;;8.57;5.57;;;;;;;;;;5073702;28;20054;-71
2022/10/05 07:13:10;;;;;;;11.63;5.80;;;;;;;;;;5073592;28;20445;-71
2022/10/05 07:15:36;;;;;;;10.30;4.93;;;;;;;;;;5073943;28;20045;-71
2022/10/05 07:18:09;;;;;;;10.27;5.23;;;;;;;;;;5073592;28;20484;-72
2022/10/05 07:20:35;;;;;;;7.10;4.60;;;;;;;;;;5073920;28;20057;-70
2022/10/05 07:23:02;;;;;;;7.37;4.17;;;;;;;;;;5073353;28;20061;-70
2022/10/05 07:25:28;;;;;;;9.13;4.33;;;;;;;;;;5073652;28;20048;-69
2022/10/05 07:27:57;;;;;;;9.60;4.03;;;;;;;;;;5073656;28;20404;-70
2022/10/05 07:30:23;;;;;;;10.23;4.13;;;;;;;;;;5073544;28;20477;-70
2022/10/05 07:32:55;;;;;;;6.47;4.27;;;;;;;;;;5056017;28;20283;-70
2022/10/05 07:38:23;;;;;;;6.90;4.30;;;;;;;;;;5073315;28;20302;-70
2022/10/05 07:41:06;;;;;;;7.07;3.80;;;;;;;;;;5073649;28;20132;-70
2022/10/05 07:43:51;;;;;;;5.37;3.67;;;;;;;;;;5073651;28;20389;-70
2022/10/05 07:46:35;;;;;;;7.35;4.25;;;;;;;;;;5055302;28;20052;-70
2022/10/05 07:49:20;;;;;;;7.38;3.30;;;;;;;;;;5073019;28;20052;-70
2022/10/05 07:51:52;;;;;;;5.40;3.08;;;;;;;;;;5073424;28;20049;-69
2022/10/05 07:54:21;;;;;;;6.17;3.43;;;;;;;;;;5073050;28;20108;-69
2022/10/05 07:56:54;;;;;;;5.97;3.10;;;;;;;;;;5073183;28;20123;-69
2022/10/05 07:59:20;;;;;;;6.00;3.00;;;;;;;;;;5072943;28;20059;-69
2022/10/05 08:01:50;;;;;;;7.23;3.10;;;;;;;;;;5055232;28;20485;-69
2022/10/05 08:04:22;;;;;;;7.30;2.73;;;;;;;;;;5072767;28;20059;-69
2022/10/05 08:06:48;;;;;;;6.07;2.67;;;;;;;;;;5072973;28;20395;-69
2022/10/05 08:09:33;;;;;;;6.40;2.33;;;;;;;;;;5072552;28;20460;-69
2022/10/05 08:12:07;;;;;;;4.45;2.38;;;;;;;;;;5055496;28;20488;-69
2022/10/05 08:14:43;;;;;;;4.30;2.30;;;;;;;;;;5073032;28;20048;-70
2022/10/05 08:17:30;;;;;;;7.73;2.47;;;;;;;;;;5072825;28;20048;-70
2022/10/05 08:20:16;;;;;;;3.87;1.70;;;;;;;;;;5022545;28;20064;-70
2022/10/05 08:22:45;;;;;;;4.32;2.33;;;;;;;;;;5072838;28;20511;-69
2022/10/05 08:25:20;;;;;;;5.30;2.07;;;;;;;;;;5072140;28;20044;-70
2022/10/05 08:27:52;;;;;;;4.30;2.00;;;;;;;;;;5072794;28;20499;-69
2022/10/05 08:30:18;;;;;;;4.20;1.90;;;;;;;;;;5072729;28;20056;-70
2022/10/05 08:32:44;;;;;;;3.40;1.77;;;;;;;;;;5072396;28;20481;-70
2022/10/05 08:35:32;;;;;;;4.37;1.93;;;;;;;;;;5072499;28;20132;-70
2022/10/05 08:37:59;;;;;;;6.30;2.37;;;;;;;;;;5072942;28;20051;-70
2022/10/05 08:40:44;;;;;;;5.43;2.40;;;;;;;;;;5072395;28;20101;-70
2022/10/05 08:43:29;;;;;;;4.88;2.30;;;;;;;;;;5072462;28;20127;-70
2022/10/05 08:46:13;;;;;;;4.00;1.95;;;;;;;;;;5072655;28;20041;-69
2022/10/05 08:48:42;;;;;;;7.53;2.30;;;;;;;;;;5072903;28;20127;-69
2022/10/05 08:51:17;;;;;;;7.17;1.93;;;;;;;;;;5072405;28;20090;-70
2022/10/05 08:54:02;;;;;;;5.97;1.93;;;;;;;;;;5072589;28;20059;-70
2022/10/05 08:56:34;;;;;;;4.82;1.73;;;;;;;;;;5072344;28;20408;-70
2022/10/05 08:59:15;;;;;;;5.70;1.70;;;;;;;;;;5072647;28;20087;-69
2022/10/05 09:01:45;;;;;;;5.37;1.80;;;;;;;;;;5072428;28;20044;-70
2022/10/05 09:04:43;;;;;;;3.60;1.90;;;16.90;99.90;;;;;;5072170;28;20060;-70
2022/10/05 09:07:13;;;;;;;4.87;1.63;;;;;;;;;;5072612;28;20049;-70
2022/10/05 09:10:02;;;;;;;7.43;1.67;;;;;;;;;;5072331;28;20115;-69
2022/10/05 09:12:47;;;;;;;6.77;2.10;;;;;;;;;;5025385;28;20114;-69
2022/10/05 09:15:36;;;;;;;5.90;2.40;;;;;;;;;;5072114;28;20079;-69
2022/10/05 09:18:37;;;;;;;5.10;2.63;;;17.20;99.90;;;;;;5072085;28;20489;-68
2022/10/05 09:21:12;;;;;;;7.50;3.60;;;17.20;99.90;;;;;;5075096;28;20052;-69
2022/10/05 09:23:41;;;;;;;10.23;4.03;;;;;;;;;;5079905;28;20048;-70
2022/10/05 09:26:41;;;;;;;7.10;4.40;;;17.20;99.90;;;;;;5060493;28;20099;-70
2022/10/05 09:29:26;;;;;;;9.37;4.50;;;;;;;;;;5044712;28;20381;-68
2022/10/05 09:32:12;;;;;;;13.90;4.05;;;;;;;;;;5069680;28;20106;-70
2022/10/05 09:35:04;;;;;;;7.60;3.73;;;;;;;;;;5021834;28;20057;-70
2022/10/05 09:37:33;;;;;;;7.53;4.00;;;;;;;;;;5068206;28;20055;-70
2022/10/05 09:39:59;;;;;;;6.70;3.80;;;;;;;;;;5075774;28;20045;-71
2022/10/05 09:42:55;;;;;;;7.23;3.37;;;;;;;;;;5075536;28;20412;-70
2022/10/05 09:45:23;;;;;;;8.82;3.70;;;;;;;;;;5054343;28;20056;-70
2022/10/05 09:48:12;;;;;;;6.87;3.17;;;;;;;;;;5075623;28;20131;-70
2022/10/05 09:50:45;;;;;;;7.83;3.00;;;;;;;;;;5075522;28;20109;-70
2022/10/05 09:53:20;;;;;;;7.90;3.20;;;;;;;;;;5075630;28;20048;-69
2022/10/05 09:56:05;;;;;;;7.97;2.73;;;;;;;;;;5075382;28;20131;-70
2022/10/05 09:58:40;;;;;;;4.85;2.63;;;;;;;;;;5075221;28;20052;-70
2022/10/05 10:01:29;;;;;;;8.40;2.72;;;;;;;;;;5075264;28;20052;-70
2022/10/05 10:04:19;;;;;;;8.03;2.67;;;;;;;;;;5075454;28;20461;-69
2022/10/05 10:07:04;;;;;;;7.13;2.43;;;;;;;;;;5062306;28;20052;-69
2022/10/05 10:09:48;;;;;;;5.70;2.83;;;;;;;;;;5074944;28;20052;-70
2022/10/05 10:12:17;;;;;;;5.70;2.38;;;;;;;;;;5075163;28;20076;-69
2022/10/05 10:14:49;;;;;;;8.23;2.10;;;;;;;;;;5074781;28;20079;-70
2022/10/05 10:17:15;;;;;;;4.33;2.13;;;;;;;;;;5075159;28;20083;-70
2022/10/05 10:20:00;;;;;;;5.67;2.13;;;;;;;;;;5074732;28;20052;-70
2022/10/05 10:22:45;;;;;;;8.20;2.67;;;;;;;;;;5074776;28;20143;-69
2022/10/05 10:25:23;;;;;;;6.30;2.00;;;;;;;;;;5075044;28;20131;-69
2022/10/05 10:28:04;;;;;;;6.50;2.37;;;;;;;;;;5074779;28;20084;-70
2022/10/05 10:30:37;;;;;;;4.93;2.00;;;;;;;;;;5074528;28;20048;-70
2022/10/05 10:33:22;;;;;;;3.43;2.00;;;;;;;;;;5074810;28;20131;-70
2022/10/05 10:36:03;;;;;;;5.32;2.30;;;;;;;;;;5074687;28;20049;-70
2022/10/05 10:38:31;;;;;;;4.00;2.20;;;;;;;;;;5056744;28;20044;-70
2022/10/05 10:41:16;;;;;;;5.97;2.10;;;;;;;;;;5074596;28;20045;-70
2022/10/05 10:43:48;;;;;;;6.15;2.25;;;;;;;;;;5074004;28;20489;-70
2022/10/05 10:46:33;;;;;;;4.90;2.47;;;;;;;;;;5074362;28;20120;-70
2022/10/05 10:49:10;;;;;;;4.43;2.28;;;;;;;;;;5074003;28;20084;-70
2022/10/05 10:51:39;;;;;;;7.03;2.30;;;;;;;;;;5073003;28;20128;-70
2022/10/05 10:54:24;;;;;;;4.67;2.53;;;;;;;;;;5072855;28;20084;-70
2022/10/05 10:57:06;;;;;;;5.15;2.58;;;;;;;;;;5056357;28;20055;-70
2022/10/05 10:59:35;;;;;;;6.70;2.30;;;;;;;;;;5073997;28;20063;-70
2022/10/05 11:02:20;;;;;;;4.73;2.43;;;;;;;;;;5074051;28;20091;-70
2022/10/05 11:04:52;;;;;;;6.03;2.40;;;;;;;;;;5074007;28;20059;-70
2022/10/05 11:07:37;;;;;;;6.23;2.10;;;;;;;;;;5074134;28;20381;-69
2022/10/05 11:10:08;;;;;;;4.95;2.45;;;;;;;;;;5074115;28;20088;-70
2022/10/05 11:12:43;;;;;;;3.83;1.87;;;;;;;;;;5073719;28;20132;-70
2022/10/05 11:15:22;;;;;;;5.43;2.20;;;;;;;;;;5056151;28;20056;-70
2022/10/05 11:18:07;;;;;;;5.67;2.30;;;;;;;;;;5073458;28;20478;-70
2022/10/05 11:20:52;;;;;;;4.68;1.92;;;;;;;;;;5073466;28;20497;-69
2022/10/05 11:23:30;;;;;;;3.85;2.20;;;;;;;;;;5073812;28;20055;-70
2022/10/05 11:26:13;;;;;;;3.73;1.80;;;;;;;;;;5073698;28;20037;-69
2022/10/05 11:28:57;;;;;;;4.73;1.80;;;;;;;;;;5073346;28;20091;-69
2022/10/05 11:31:39;;;;;;;6.75;1.95;;;;;;;;;;5073659;28;20135;-69
2022/10/05 11:34:23;;;;;;;4.27;2.03;;;;;;;;;;5073853;28;20052;-69
2022/10/05 11:37:08;;;;;;;7.43;1.90;;;;;;;;;;5073271;28;20049;-70
2022/10/05 11:39:43;;;;;;;3.13;1.60;;;;;;;;;;5072989;28;20501;-70
2022/10/05 11:42:12;;;;;;;5.83;2.10;;;;;;;;;;5056004;28;20048;-70
2022/10/05 11:44:38;;;;;;;6.33;2.00;;;;;;;;;;5073069;28;20135;-71
2022/10/05 11:47:13;;;;;;;3.53;1.90;;;;;;;;;;5064030;28;20064;-70
2022/10/05 11:49:42;;;;;;;3.90;1.80;;;16.80;99.90;;;;;;5062947;28;20101;-70
2022/10/05 11:52:38;;;;;;;4.23;1.80;;;16.80;99.90;;;;;;5062958;28;20048;-74
2022/10/05 11:55:21;;;;;;;9.25;2.03;;;16.80;99.90;;;;;;5061662;28;20388;-73
2022/10/05 11:57:57;;;;;;;5.47;1.93;;;16.90;99.90;;;;;;5062491;28;20127;-74
2022/10/05 12:00:29;;;;;;;4.37;1.97;;;16.80;99.90;;;;;;5065468;28;20040;-70
2022/10/05 12:03:14;;;;;;;5.17;2.00;;;16.80;99.90;;;;;;5062566;28;20124;-70
2022/10/05 12:06:00;;;;;;;5.50;2.13;;;16.80;99.90;;;;;;5064172;28;20047;-71
2022/10/05 12:09:03;;;;;;;5.63;2.20;;;16.80;99.90;;;;;;5062877;28;20089;-70
2022/10/05 12:11:36;;;;;;;6.43;1.90;;;16.80;99.90;;;;;;5064491;28;20385;-70
2022/10/05 12:14:06;;;;;;;6.80;1.77;;;16.80;99.90;;;;;;5059908;28;20102;-70
2022/10/05 12:16:54;;;;;;;4.67;1.73;;;16.90;99.90;;;;;;5063438;28;20052;-71
2022/10/05 12:19:35;;;;;;;4.97;1.77;;;16.90;99.90;;;;;;5043925;28;20068;-70
2022/10/05 12:22:21;;;;;;;9.40;1.90;;;16.90;99.90;;;;;;5060627;28;20067;-70
2022/10/05 12:25:03;;;;;;;4.17;2.10;;;16.90;99.90;;;;;;5043936;28;20040;-71
2022/10/05 12:27:39;;;;;;;5.50;2.30;;;16.90;99.90;;;;;;5064015;28;20040;-71
2022/10/05 12:30:23;;;;;;;6.20;2.27;;;17.00;99.90;;;;;;5059788;28;20168;-71
2022/10/05 12:33:27;;;;;;;6.77;2.10;;;17.00;99.90;;;;;;5063414;28;20045;-71
2022/10/05 12:35:56;;;;;;;5.23;2.43;;;16.90;99.90;;;;;;5046978;28;20056;-70
2022/10/05 12:38:33;;;;;;;5.20;2.20;;;16.90;99.90;;;;;;5067501;28;20393;-67
2022/10/05 12:41:16;;;;;;;4.97;2.30;;;16.90;99.90;;;;;;5072687;28;20472;-70
2022/10/05 12:44:34;;;;;;;4.50;2.60;;;16.90;99.90;;;;;;5072423;28;20078;-69
2022/10/05 12:47:08;;;;;;;4.07;2.30;;;16.90;99.90;;;;;;5000598;28;20085;-70
2022/10/05 12:50:09;;;;;;;4.78;2.55;;;16.90;99.90;;;;;;5042863;28;20076;-70
2022/10/05 12:52:44;;;;;;;5.00;2.03;;;16.90;99.90;;;;;;5062810;28;20047;-70
2022/10/05 12:55:33;;;;;;;6.57;2.60;;;16.90;99.90;;;;;;5063928;28;20060;-70
2022/10/05 12:58:18;;;;;;;5.33;2.30;;;17.00;99.90;;;;;;5061659;28;20500;-69
2022/10/05 13:01:15;;;;;;;6.85;2.78;;;17.00;99.90;;;;;;5052402;28;20095;-71
2022/10/05 13:03:53;;;;;;;5.70;2.60;;;17.00;99.90;;;;;;5052301;28;20516;-69
2022/10/05 13:06:45;;;;;;;6.97;2.57;;;17.10;99.90;;;;;;5052465;28;20045;-69
2022/10/05 13:09:30;;;;;;;6.07;2.70;;;17.10;99.90;;;;;;5052431;28;20497;-69
2022/10/05 13:12:05;;;;;;;5.37;3.00;;;17.10;99.90;;;;;;5053897;28;20052;-69
2022/10/05 13:14:54;;;;;;;8.38;2.78;;;17.20;99.90;;;;;;5056555;28;20045;-69
2022/10/05 13:17:37;;;;;;;6.10;2.87;;;17.20;99.90;;;;;;5056539;28;20045;-69
2022/10/05 13:20:22;;;;;;;7.43;2.97;;;17.30;99.90;;;;;;5056350;28;20106;-69
2022/10/05 13:23:01;;;;;;;7.63;3.20;;;17.30;99.90;;;;;;5056135;28;20088;-69
2022/10/05 13:25:50;;;;;;;8.50;2.73;;;17.30;99.90;;;;;;5056382;28;20107;-69
2022/10/05 13:28:21;;;;;;;4.93;2.83;;;17.30;99.90;;;;;;5038499;28;20456;-69
2022/10/05 13:31:48;;;;;;;6.63;2.97;;;17.30;99.90;;;;;;5056143;28;20049;-69
2022/10/05 13:34:36;;;;;;;6.65;3.15;;;17.40;99.90;;;;;;5011301;28;20075;-69
2022/10/05 13:37:16;;;;;;;6.87;3.20;;;17.40;99.90;;;;;;5055454;28;20489;-69
2022/10/05 13:40:00;;;;;;;6.97;3.37;;;17.40;99.90;;;;;;5055786;28;20098;-69
2022/10/05 13:42:33;;;;;;;7.20;3.20;;;17.50;99.90;;;;;;5055886;28;20049;-69
2022/10/05 13:45:09;;;;;;;6.90;2.83;;;17.50;99.90;;;;;;5055533;28;20128;-69
2022/10/05 13:47:53;;;;;;;7.83;3.53;;;17.50;99.90;;;;;;5055932;28;20098;-68
2022/10/05 13:50:23;;;;;;;9.80;3.57;;;17.60;99.90;;;;;;5055566;28;20053;-70
2022/10/05 13:53:08;;;;;;;8.27;3.30;;;17.60;99.90;;;;;;5060386;28;20056;-70
2022/10/05 13:55:39;;;;;;;8.50;2.63;;;17.60;99.90;;;;;;5049218;28;20479;-71
2022/10/05 13:58:21;;;;;;;6.63;3.30;;;17.60;99.90;;;;;;5047608;28;20098;-72
2022/10/05 14:00:54;;;;;;;9.67;3.13;;;17.60;99.90;;;;;;5046609;28;20098;-70
2022/10/05 14:03:33;;;;;;;7.87;3.10;;;17.60;99.90;;;;;;5057456;28;20139;-71
2022/10/05 14:06:28;;;;;;;6.07;3.00;;;17.60;99.90;;;;;;5048656;28;20044;-70
2022/10/05 14:08:56;;;;;;;9.27;2.63;;;17.60;99.90;;;;;;5055730;28;20639;-71
2022/10/05 14:11:35;;;;;;;10.07;2.83;;;17.60;99.90;;;;;;5066910;28;20048;-70
2022/10/05 14:14:15;;;;;;;7.23;2.90;;;17.60;99.90;;;;;;5068117;28;20396;-71
2022/10/05 14:16:51;;;;;;;7.70;2.73;;;17.60;99.90;;;;;;5066448;28;20041;-71
2022/10/05 14:19:25;;;;;;;7.10;3.53;;;17.60;99.90;;;;;;5067605;28;20094;-71
2022/10/05 14:22:01;;;;;;;5.18;3.25;;;17.60;99.90;;;;;;5065128;28;20061;-71
2022/10/05 14:24:33;;;;;;;10.67;3.03;;;17.50;99.90;;;;;;5067100;28;20044;-71
2022/10/05 14:27:15;;;;;;;6.10;2.77;;;17.60;99.90;;;;;;5064807;28;20166;-71
2022/10/05 14:29:41;;;;;;;9.17;2.27;;;17.50;99.90;;;;;;5068365;28;20166;-72
2022/10/05 14:32:17;;;;;;;7.00;2.60;;;17.50;99.90;;;;;;5047636;28;20052;-71
2022/10/05 14:35:03;;;;;;;5.67;2.80;;;17.50;99.90;;;;;;5068686;28;20080;-72
2022/10/05 14:38:02;;;;;;;5.23;2.53;;;17.40;99.90;;;;;;5064945;28;20057;-71
2022/10/05 14:40:35;;;;;;;8.90;2.37;;;17.40;99.90;;;;;;5049110;28;20484;-72
2022/10/05 14:43:13;;;;;;;7.73;2.40;;;17.40;99.90;;;;;;5065015;28;20045;-70
2022/10/05 14:45:55;;;;;;;8.47;2.47;;;17.40;99.90;;;;;;5074084;28;20053;-69
2022/10/05 14:48:21;;;;;;;5.80;2.00;;;17.40;99.90;;;;;;5074679;28;20053;-69
2022/10/05 14:50:53;;;;;;;5.27;2.67;;;17.40;99.90;;;;;;5074219;28;20057;-71
2022/10/05 14:53:23;;;;;;;6.03;2.80;;;17.40;99.90;;;;;;5074753;28;20057;-70
2022/10/05 14:56:11;;;;;;;4.90;2.40;;;17.40;99.90;;;;;;5074145;28;20048;-70
2022/10/05 14:59:13;;;;;;;6.10;2.90;;;17.30;99.90;;;;;;5056666;28;20558;-70
2022/10/05 15:01:54;;;;;;;5.07;2.30;;;17.30;99.90;;;;;;5074046;28;20052;-70
2022/10/05 15:04:42;;;;;;;6.17;2.57;;;17.30;99.90;;;;;;5074414;28;20388;-70
2022/10/05 15:07:26;;;;;;;7.07;2.37;;;17.30;99.90;;;;;;5073733;28;20041;-70
2022/10/05 15:10:29;;;;;;;5.17;2.40;;;17.20;99.90;;;;;;5073902;28;20083;-71